Time;durP1;ratioP1;P1;durP2;ratioP2;P2;SDS_P1;SDS_P2;PMS_P1;PMS_P2;Temp;Humidity;BMP_temperature;BMP_pressure;BME280_temperature;BME280_humidity;BME280_pressure;Samples;Min_cycle;Max_cycle;Signal;HPM_P1;HPM_P2
2022/01/16 00:01:33;;;;;;;5.10;2.92;;;1.20;99.90;;;;;;5016074;28;20053;-84
2022/01/16 00:04:11;;;;;;;9.25;3.53;;;1.20;99.90;;;;;;5028982;28;20033;-84
2022/01/16 00:06:38;;;;;;;7.60;4.75;;;1.30;99.90;;;;;;4995614;28;20041;-84
2022/01/16 00:09:05;;;;;;;14.57;6.82;;;1.20;99.90;;;;;;4996116;28;20525;-84
2022/01/16 00:11:31;;;;;;;8.15;3.60;;;1.20;99.90;;;;;;4996316;28;20041;-84
2022/01/16 00:13:57;;;;;;;8.93;4.40;;;1.20;99.90;;;;;;5015814;28;20482;-84
2022/01/16 00:16:23;;;;;;;9.55;5.93;;;1.20;99.90;;;;;;5015220;28;20136;-84
2022/01/16 00:18:49;;;;;;;7.97;3.72;;;1.20;99.90;;;;;;5015609;28;20069;-84
2022/01/16 00:21:47;;;;;;;13.10;6.10;;;1.30;99.90;;;;;;5031832;28;20033;-83
2022/01/16 00:24:13;;;;;;;6.28;3.35;;;1.30;99.90;;;;;;4964333;28;20399;-84
2022/01/16 00:26:40;;;;;;;20.38;8.15;;;1.30;99.90;;;;;;5011714;28;20034;-84
2022/01/16 00:29:07;;;;;;;16.33;7.50;;;1.30;99.90;;;;;;4995908;28;20034;-84
2022/01/16 00:31:35;;;;;;;6.60;3.85;;;1.30;99.90;;;;;;4995754;28;20037;-84
2022/01/16 00:34:00;;;;;;;8.05;4.18;;;1.30;99.90;;;;;;4996151;28;20026;-84
2022/01/16 00:36:26;;;;;;;7.10;2.80;;;1.30;99.90;;;;;;4995281;28;20092;-84
2022/01/16 00:38:53;;;;;;;3.15;2.17;;;1.30;99.90;;;;;;5012502;28;20045;-84
2022/01/16 00:41:20;;;;;;;8.50;5.32;;;1.40;99.90;;;;;;5011993;28;20612;-83
2022/01/16 00:43:48;;;;;;;20.80;8.55;;;1.40;99.90;;;;;;5014234;28;20411;-83
2022/01/16 00:46:13;;;;;;;11.70;6.35;;;1.40;99.90;;;;;;5014846;28;20041;-84
2022/01/16 00:48:39;;;;;;;5.25;3.63;;;1.40;99.90;;;;;;5031638;28;20410;-84
2022/01/16 00:51:05;;;;;;;6.80;4.35;;;1.40;99.90;;;;;;5015180;28;20042;-83
2022/01/16 00:53:30;;;;;;;13.80;4.25;;;1.40;99.90;;;;;;5031673;28;20083;-83
2022/01/16 00:55:56;;;;;;;10.65;4.82;;;1.40;99.90;;;;;;5015476;28;20179;-84
2022/01/16 00:58:21;;;;;;;3.97;2.83;;;1.50;99.90;;;;;;5031222;28;20183;-84
2022/01/16 01:00:47;;;;;;;8.70;5.20;;;1.40;99.90;;;;;;5015661;28;20488;-83
2022/01/16 01:03:14;;;;;;;13.23;6.20;;;1.50;99.90;;;;;;5017121;28;20037;-83
2022/01/16 01:05:40;;;;;;;24.38;10.00;;;1.50;99.90;;;;;;5019379;28;20048;-83
2022/01/16 01:08:07;;;;;;;20.17;7.05;;;1.40;99.90;;;;;;5018525;28;20041;-84
2022/01/16 01:10:36;;;;;;;41.95;13.02;;;1.40;99.90;;;;;;5019068;28;20469;-83
2022/01/16 01:13:22;;;;;;;23.73;9.82;;;1.50;99.90;;;;;;5018930;28;20037;-84
2022/01/16 01:15:51;;;;;;;8.80;3.58;;;1.40;99.90;;;;;;5019235;28;20671;-84
2022/01/16 01:18:18;;;;;;;33.45;13.35;;;1.50;99.90;;;;;;5018680;28;20041;-83
2022/01/16 01:20:48;;;;;;;15.50;5.72;;;1.40;99.90;;;;;;5018704;28;20037;-84
2022/01/16 01:23:14;;;;;;;13.88;6.93;;;1.40;99.90;;;;;;5018668;28;20076;-83
2022/01/16 01:25:42;;;;;;;23.67;8.90;;;1.40;99.90;;;;;;5018965;28;20034;-84
2022/01/16 01:28:08;;;;;;;29.33;12.43;;;1.40;99.90;;;;;;5034719;28;20467;-83
2022/01/16 01:30:35;;;;;;;22.48;9.10;;;1.40;99.90;;;;;;5018670;28;20052;-84
2022/01/16 01:33:01;;;;;;;23.88;10.93;;;1.40;99.90;;;;;;5018627;28;20045;-83
2022/01/16 01:35:28;;;;;;;19.80;6.78;;;1.40;99.90;;;;;;5018429;28;20099;-84
2022/01/16 01:37:54;;;;;;;16.88;7.85;;;1.40;99.90;;;;;;5018337;28;20052;-83
2022/01/16 01:40:23;;;;;;;6.28;4.13;;;1.50;99.90;;;;;;5034969;28;20042;-83
2022/01/16 01:51:10;;;;;;;16.73;6.95;;;1.50;99.90;;;;;;5034729;28;20475;-84
2022/01/16 01:53:37;;;;;;;17.27;7.43;;;1.50;99.90;;;;;;5018297;28;20045;-84
2022/01/16 01:56:05;;;;;;;12.98;6.70;;;1.40;99.90;;;;;;5017802;28;20111;-86
2022/01/16 01:58:31;;;;;;;3.33;2.17;;;1.40;99.90;;;;;;5018195;28;20087;-84
2022/01/16 02:00:56;;;;;;;23.77;9.30;;;1.50;99.90;;;;;;5034645;28;20037;-84
2022/01/16 02:04:04;;;;;;;11.43;3.75;;;1.50;99.90;;;;;;5034466;28;20041;-84
2022/01/16 02:06:22;;;;;;;29.95;9.02;;;1.50;99.90;;;;;;5028480;28;20410;-84
2022/01/16 02:08:51;;;;;;;13.13;6.18;;;1.50;99.90;;;;;;5034483;28;20387;-83
2022/01/16 02:11:17;;;;;;;10.75;5.53;;;1.50;99.90;;;;;;5017893;28;20045;-84
2022/01/16 02:30:59;;;;;;;7.93;4.57;;;1.60;99.90;;;;;;5034050;28;20080;-83
2022/01/16 02:33:21;;;;;;;11.57;5.95;;;1.60;99.90;;;;;;5028594;28;20049;-84
2022/01/16 02:35:35;;;;;;;6.75;3.65;;;1.60;99.90;;;;;;5033828;28;20517;-84
2022/01/16 02:38:03;;;;;;;6.68;3.67;;;1.60;99.90;;;;;;5017200;28;20049;-83
2022/01/16 02:40:29;;;;;;;28.48;6.43;;;1.60;99.90;;;;;;5017364;28;20038;-83
2022/01/16 02:42:54;;;;;;;10.55;5.88;;;1.60;99.90;;;;;;5017197;28;20046;-84
2022/01/16 02:45:32;;;;;;;12.07;5.03;;;1.60;99.90;;;;;;5017304;28;20430;-84
2022/01/16 02:48:02;;;;;;;10.98;2.60;;;1.90;99.90;;;;;;5017026;28;20065;-84
2022/01/16 02:50:29;;;;;;;10.27;6.05;;;1.60;99.90;;;;;;5033704;28;20388;-84
2022/01/16 02:52:54;;;;;;;7.22;4.22;;;1.70;99.90;;;;;;5017015;28;20103;-83
2022/01/16 02:55:21;;;;;;;12.65;6.47;;;1.70;99.90;;;;;;5017084;28;20037;-84
2022/01/16 02:57:48;;;;;;;4.90;2.90;;;1.70;99.90;;;;;;5033072;28;20095;-84
2022/01/16 03:00:14;;;;;;;14.85;6.22;;;1.70;99.90;;;;;;5017071;28;20406;-84
2022/01/16 03:02:40;;;;;;;11.05;6.15;;;1.70;99.90;;;;;;5016817;28;20041;-83
2022/01/16 03:05:06;;;;;;;21.77;10.02;;;1.70;99.90;;;;;;5016906;28;20041;-84
2022/01/16 03:07:32;;;;;;;21.98;7.07;;;1.70;99.90;;;;;;5016588;28;20049;-83
2022/01/16 03:10:42;;;;;;;7.22;3.42;;;1.70;99.90;;;;;;5017001;28;20029;-83
2022/01/16 03:13:08;;;;;;;6.93;4.18;;;1.70;99.90;;;;;;5016920;28;20041;-84
2022/01/16 03:15:36;;;;;;;42.70;11.30;;;1.70;99.90;;;;;;5016921;28;20557;-84
2022/01/16 03:23:13;;;;;;;25.15;9.13;;;1.80;99.90;;;;;;5032939;28;20100;-83
2022/01/16 03:25:39;;;;;;;19.55;8.55;;;1.70;99.90;;;;;;5032303;28;20045;-84
2022/01/16 03:28:04;;;;;;;9.10;4.88;;;1.80;99.90;;;;;;5016008;28;20037;-84
2022/01/16 03:30:30;;;;;;;27.27;10.30;;;1.80;99.90;;;;;;5032738;28;20034;-84
2022/01/16 03:32:56;;;;;;;20.08;7.85;;;1.80;99.90;;;;;;5016549;28;20892;-84
2022/01/16 03:35:21;;;;;;;13.68;6.35;;;1.90;99.90;;;;;;5032876;28;20073;-84
2022/01/16 03:37:47;;;;;;;4.05;2.65;;;1.90;99.90;;;;;;5015941;28;20048;-84
2022/01/16 03:40:13;;;;;;;24.25;9.50;;;1.90;99.90;;;;;;5016291;28;20564;-84
2022/01/16 03:42:40;;;;;;;14.23;6.03;;;1.90;99.90;;;;;;5016121;28;20041;-84
2022/01/16 03:45:07;;;;;;;21.75;10.10;;;1.90;99.90;;;;;;5016146;28;20045;-84
2022/01/16 03:47:33;;;;;;;21.95;8.93;;;2.00;99.90;;;;;;5015820;28;20049;-83
2022/01/16 03:49:59;;;;;;;16.60;5.97;;;2.00;99.90;;;;;;5016158;28;20136;-83
2022/01/16 03:52:24;;;;;;;16.48;6.10;;;1.90;99.90;;;;;;5016219;28;20037;-83
2022/01/16 03:54:50;;;;;;;23.08;7.60;;;2.00;99.90;;;;;;5016086;28;20037;-83
2022/01/16 03:57:15;;;;;;;20.13;7.45;;;2.00;99.90;;;;;;5015591;28;20095;-84
2022/01/16 03:59:41;;;;;;;10.98;5.45;;;2.00;99.90;;;;;;5032645;28;20052;-84
2022/01/16 04:02:07;;;;;;;15.35;5.63;;;2.00;99.90;;;;;;5032163;28;20041;-84
2022/01/16 04:04:32;;;;;;;13.52;5.53;;;2.10;99.90;;;;;;5032567;28;20037;-84
2022/01/16 04:06:59;;;;;;;12.00;6.65;;;2.10;99.90;;;;;;5031673;28;20068;-83
2022/01/16 04:09:25;;;;;;;17.45;6.90;;;2.10;99.90;;;;;;5015964;28;20083;-84
2022/01/16 04:11:54;;;;;;;32.75;11.48;;;2.60;99.90;;;;;;5016011;28;20128;-84
2022/01/16 04:15:31;;;;;;;14.32;6.22;;;2.20;99.90;;;;;;5032124;28;20051;-83
2022/01/16 04:17:06;;;;;;;14.25;8.57;;;2.60;99.90;;;;;;5031046;28;20053;-84
2022/01/16 04:19:31;;;;;;;6.32;3.70;;;2.20;99.90;;;;;;5015688;28;20099;-84
2022/01/16 04:21:57;;;;;;;28.95;12.43;;;2.20;99.90;;;;;;5032154;28;20521;-84
2022/01/16 04:24:22;;;;;;;13.75;6.10;;;2.30;99.90;;;;;;5031990;28;20655;-84
2022/01/16 04:26:48;;;;;;;15.95;7.22;;;2.30;99.90;;;;;;5015257;28;20503;-84
2022/01/16 04:29:14;;;;;;;23.88;10.45;;;2.30;99.90;;;;;;5032256;28;20038;-83
2022/01/16 04:31:39;;;;;;;19.27;7.03;;;2.40;99.90;;;;;;5015646;28;20037;-84
2022/01/16 04:34:05;;;;;;;11.95;6.80;;;2.30;99.90;;;;;;5015654;28;20034;-83
2022/01/16 04:36:30;;;;;;;20.00;6.18;;;2.40;99.90;;;;;;5031341;28;20033;-84
2022/01/16 04:38:56;;;;;;;9.27;4.80;;;2.40;99.90;;;;;;5015339;28;20399;-84
2022/01/16 04:44:06;;;;;;;13.65;6.43;;;2.70;99.90;;;;;;5032032;28;20107;-83
2022/01/16 04:46:33;;;;;;;10.30;5.53;;;2.50;99.90;;;;;;5014869;28;20124;-84
2022/01/16 04:49:01;;;;;;;19.00;7.63;;;2.40;99.90;;;;;;5031780;28;20052;-84
2022/01/16 04:51:28;;;;;;;4.30;2.83;;;2.40;99.90;;;;;;5031504;28;20037;-84
2022/01/16 04:53:53;;;;;;;9.73;4.32;;;2.50;99.90;;;;;;5015272;28;20049;-84
2022/01/16 04:56:19;;;;;;;23.20;9.30;;;2.50;99.90;;;;;;5031244;28;20136;-84
2022/01/16 04:58:45;;;;;;;17.35;7.68;;;2.50;99.90;;;;;;5015197;28;20483;-84
2022/01/16 05:01:11;;;;;;;15.23;7.75;;;2.50;99.90;;;;;;5015094;28;20083;-83
2022/01/16 05:03:38;;;;;;;21.48;7.22;;;2.60;99.90;;;;;;5014948;28;20045;-83
2022/01/16 05:06:04;;;;;;;11.85;5.57;;;2.50;99.90;;;;;;5031097;28;20072;-84
2022/01/16 05:08:30;;;;;;;13.98;7.78;;;2.50;99.90;;;;;;5015061;28;20041;-84
2022/01/16 05:10:57;;;;;;;8.77;4.47;;;2.50;99.90;;;;;;5014981;28;20037;-84
2022/01/16 05:18:39;;;;;;;15.52;8.35;;;2.70;99.90;;;;;;5031463;28;20461;-83
2022/01/16 05:21:06;;;;;;;9.60;4.70;;;2.60;99.90;;;;;;5014837;28;20106;-84
2022/01/16 05:23:33;;;;;;;22.42;9.13;;;2.60;99.90;;;;;;5014897;28;20045;-84
2022/01/16 05:26:00;;;;;;;18.75;7.00;;;2.70;99.90;;;;;;5014839;28;20035;-83
2022/01/16 05:28:26;;;;;;;8.23;5.03;;;2.60;99.90;;;;;;5014604;28;20033;-84
2022/01/16 05:30:51;;;;;;;14.90;5.78;;;2.70;99.90;;;;;;5015170;28;20403;-84
2022/01/16 05:33:17;;;;;;;23.38;8.82;;;2.70;99.90;;;;;;5014875;28;20041;-84
2022/01/16 05:35:42;;;;;;;14.55;4.72;;;2.70;99.90;;;;;;5014786;28;20038;-83
2022/01/16 05:38:09;;;;;;;11.95;5.80;;;2.70;99.90;;;;;;5014493;28;20112;-83
2022/01/16 05:40:35;;;;;;;14.68;5.93;;;2.70;99.90;;;;;;5014864;28;20052;-83
2022/01/16 05:43:01;;;;;;;6.90;4.07;;;2.70;99.90;;;;;;5014765;28;20569;-84
2022/01/16 05:45:27;;;;;;;21.55;8.75;;;2.70;99.90;;;;;;5014887;28;20041;-83
2022/01/16 05:47:53;;;;;;;20.73;6.22;;;2.80;99.90;;;;;;5030777;28;20510;-84
2022/01/16 05:50:19;;;;;;;6.90;4.18;;;2.70;99.90;;;;;;5034667;28;20029;-84
2022/01/16 05:52:45;;;;;;;18.08;8.07;;;2.70;99.90;;;;;;5018228;28;20175;-84
2022/01/16 05:55:11;;;;;;;21.23;7.45;;;2.80;99.90;;;;;;5018240;28;20387;-83
2022/01/16 05:57:36;;;;;;;12.88;6.15;;;2.70;99.90;;;;;;5034546;28;20041;-84
2022/01/16 06:00:04;;;;;;;29.35;10.93;;;2.80;99.90;;;;;;5018119;28;20064;-84
2022/01/16 06:02:30;;;;;;;16.90;8.95;;;2.80;99.90;;;;;;5018001;28;20042;-83
2022/01/16 06:04:56;;;;;;;7.38;3.75;;;2.80;99.90;;;;;;5018107;28;20406;-84
2022/01/16 06:07:21;;;;;;;16.30;5.88;;;2.80;99.90;;;;;;5017779;28;20118;-83
2022/01/16 06:09:47;;;;;;;27.60;9.43;;;2.90;99.90;;;;;;5018075;28;20089;-84
2022/01/16 06:12:13;;;;;;;14.98;5.18;;;2.90;99.90;;;;;;5034600;28;20076;-84
2022/01/16 06:14:38;;;;;;;17.63;6.68;;;2.90;99.90;;;;;;5017917;28;20045;-84
2022/01/16 06:17:04;;;;;;;23.77;10.38;;;2.90;99.90;;;;;;5017644;28;20077;-84
2022/01/16 06:19:30;;;;;;;18.63;7.78;;;3.60;99.90;;;;;;5017939;28;20083;-84
2022/01/16 06:21:55;;;;;;;7.82;4.60;;;3.00;99.90;;;;;;5017545;28;20518;-84
2022/01/16 06:24:21;;;;;;;3.38;2.03;;;3.00;99.90;;;;;;5017739;28;20033;-84
2022/01/16 06:26:49;;;;;;;24.58;9.73;;;3.00;99.90;;;;;;5017473;28;20037;-84
2022/01/16 06:29:15;;;;;;;29.40;10.82;;;3.10;99.90;;;;;;5034101;28;20034;-84
2022/01/16 06:31:41;;;;;;;16.45;6.85;;;3.10;99.90;;;;;;5017579;28;20084;-84
2022/01/16 06:34:07;;;;;;;17.48;7.95;;;3.10;99.90;;;;;;5017818;28;20463;-84
2022/01/16 06:36:34;;;;;;;26.98;11.05;;;3.10;99.90;;;;;;5017022;28;20047;-84
2022/01/16 06:39:00;;;;;;;19.80;6.93;;;3.10;99.90;;;;;;5017719;28;20059;-83
2022/01/16 06:41:25;;;;;;;43.95;12.85;;;3.20;99.90;;;;;;5017403;28;20518;-84
2022/01/16 06:43:51;;;;;;;20.88;7.55;;;3.20;99.90;;;;;;5017153;28;20046;-84
2022/01/16 06:46:17;;;;;;;21.08;8.98;;;3.20;99.90;;;;;;5017126;28;20029;-84
2022/01/16 06:48:42;;;;;;;15.48;6.78;;;3.20;99.90;;;;;;5033659;28;20045;-84
2022/01/16 06:51:08;;;;;;;22.70;8.52;;;3.30;99.90;;;;;;5017242;28;20094;-84
2022/01/16 06:53:34;;;;;;;9.18;3.63;;;3.30;99.90;;;;;;5033599;28;20045;-84
2022/01/16 06:56:01;;;;;;;13.50;5.82;;;3.30;99.90;;;;;;5017396;28;20487;-84
2022/01/16 06:58:26;;;;;;;16.77;6.85;;;3.30;99.90;;;;;;5033381;28;20120;-84
2022/01/16 07:00:52;;;;;;;10.05;3.63;;;3.40;99.90;;;;;;5032727;28;20130;-84
2022/01/16 07:03:18;;;;;;;25.35;10.25;;;3.30;99.90;;;;;;5016789;28;20044;-84
2022/01/16 07:05:44;;;;;;;6.65;4.80;;;3.40;99.90;;;;;;5033520;28;20111;-84
2022/01/16 07:08:10;;;;;;;26.90;10.88;;;3.40;99.90;;;;;;5016673;28;20487;-84
2022/01/16 07:10:37;;;;;;;13.55;7.45;;;3.50;99.90;;;;;;5033510;28;20038;-84
2022/01/16 07:13:03;;;;;;;10.05;6.07;;;3.40;99.90;;;;;;5017025;28;20041;-84
2022/01/16 07:15:29;;;;;;;9.93;4.32;;;3.40;99.90;;;;;;5016810;28;20128;-84
2022/01/16 07:17:54;;;;;;;18.55;10.55;;;3.50;99.90;;;;;;5032880;28;20502;-84
2022/01/16 07:20:20;;;;;;;14.10;7.20;;;3.50;99.90;;;;;;5016834;28;20034;-83
2022/01/16 07:22:47;;;;;;;24.02;11.05;;;3.50;99.90;;;;;;5016445;28;20037;-83
2022/01/16 07:25:13;;;;;;;29.13;11.88;;;3.50;99.90;;;;;;5016858;28;20571;-83
2022/01/16 07:27:39;;;;;;;6.15;4.07;;;3.50;99.90;;;;;;5015923;28;20405;-84
2022/01/16 07:30:05;;;;;;;20.58;8.38;;;3.60;99.90;;;;;;5032976;28;20041;-84
2022/01/16 07:32:31;;;;;;;28.25;10.30;;;3.60;99.90;;;;;;5016683;28;20090;-83
2022/01/16 07:34:57;;;;;;;26.38;12.45;;;3.60;99.90;;;;;;5016448;28;20038;-84
2022/01/16 07:37:22;;;;;;;23.35;9.68;;;3.60;99.90;;;;;;5015873;28;20444;-84
2022/01/16 07:39:48;;;;;;;20.92;8.85;;;3.60;99.90;;;;;;5016353;28;20041;-84
2022/01/16 07:42:13;;;;;;;5.93;2.38;;;3.60;99.90;;;;;;5016141;28;20052;-84
2022/01/16 07:44:39;;;;;;;18.58;9.23;;;3.60;99.90;;;;;;5016594;28;20037;-84
2022/01/16 07:47:05;;;;;;;17.65;8.77;;;3.60;99.90;;;;;;5016005;28;20044;-83
2022/01/16 07:49:31;;;;;;;22.48;9.60;;;3.70;99.90;;;;;;5016029;28;20040;-84
2022/01/16 07:51:56;;;;;;;12.80;6.85;;;3.70;99.90;;;;;;5016124;28;20477;-83
2022/01/16 07:54:22;;;;;;;18.67;9.38;;;3.70;99.90;;;;;;5032545;28;20494;-84
2022/01/16 07:56:48;;;;;;;17.70;8.30;;;3.70;99.90;;;;;;5015938;28;20041;-84
2022/01/16 07:59:13;;;;;;;14.23;4.05;;;3.70;99.90;;;;;;5016001;28;20110;-84
2022/01/16 08:01:39;;;;;;;11.90;6.35;;;3.70;99.90;;;;;;5015832;28;20116;-84
2022/01/16 08:04:04;;;;;;;19.63;9.88;;;3.80;99.90;;;;;;5016209;28;20450;-84
2022/01/16 08:06:31;;;;;;;15.93;7.80;;;3.80;99.90;;;;;;5015348;28;20470;-84
2022/01/16 08:08:57;;;;;;;13.93;6.07;;;3.80;99.90;;;;;;5015857;28;20030;-84
2022/01/16 08:11:23;;;;;;;9.32;5.93;;;3.80;99.90;;;;;;5015535;28;20384;-84
2022/01/16 08:13:48;;;;;;;20.15;7.65;;;3.90;99.90;;;;;;5016110;28;20094;-83
2022/01/16 08:16:14;;;;;;;16.17;8.07;;;3.90;99.90;;;;;;5015502;28;20037;-84
2022/01/16 08:18:40;;;;;;;20.90;8.52;;;3.90;99.90;;;;;;5015659;28;20076;-84
2022/01/16 08:21:06;;;;;;;24.13;6.07;;;4.00;99.90;;;;;;5015781;28;20045;-84
2022/01/16 08:23:32;;;;;;;18.95;6.82;;;4.00;99.90;;;;;;5015606;28;20040;-84
2022/01/16 08:25:58;;;;;;;3.78;2.75;;;4.00;99.90;;;;;;5015432;28;20030;-84
2022/01/16 08:28:23;;;;;;;7.72;4.05;;;4.10;99.90;;;;;;5031892;28;20085;-84
2022/01/16 08:30:49;;;;;;;5.88;3.30;;;4.10;99.90;;;;;;5015657;28;20521;-84
2022/01/16 08:33:15;;;;;;;21.85;8.85;;;4.10;99.90;;;;;;5015515;28;20041;-84
2022/01/16 08:35:41;;;;;;;12.30;4.85;;;4.10;99.90;;;;;;5032224;28;20061;-84
2022/01/16 08:38:06;;;;;;;17.25;7.63;;;4.20;99.90;;;;;;5015073;28;20038;-84
2022/01/16 08:40:32;;;;;;;8.73;4.90;;;4.20;99.90;;;;;;5015380;28;20045;-83
2022/01/16 08:42:58;;;;;;;16.23;6.97;;;4.20;99.90;;;;;;5015324;28;20037;-84
2022/01/16 08:45:24;;;;;;;8.30;3.95;;;4.20;99.90;;;;;;5015516;28;20495;-84
2022/01/16 08:47:49;;;;;;;21.25;8.93;;;4.20;99.90;;;;;;5014994;28;20033;-84
2022/01/16 08:50:16;;;;;;;4.82;2.92;;;4.30;99.90;;;;;;5031777;28;20041;-84
2022/01/16 08:52:42;;;;;;;9.32;4.60;;;4.40;99.90;;;;;;5031511;28;20128;-84
2022/01/16 08:55:09;;;;;;;5.75;3.58;;;4.30;99.90;;;;;;5015420;28;20044;-83
2022/01/16 08:57:35;;;;;;;18.58;7.72;;;4.30;99.90;;;;;;5015046;28;20042;-84
2022/01/16 09:00:02;;;;;;;10.20;5.55;;;4.40;99.90;;;;;;5015025;28;20045;-84
2022/01/16 09:02:28;;;;;;;19.42;8.80;;;4.40;99.90;;;;;;5024491;28;20045;-84
2022/01/16 09:04:54;;;;;;;17.98;8.70;;;4.30;99.90;;;;;;5014160;28;20044;-84
2022/01/16 09:07:20;;;;;;;10.80;2.97;;;4.40;99.90;;;;;;5014299;28;20507;-84
2022/01/16 09:09:45;;;;;;;5.93;3.58;;;4.40;99.90;;;;;;5014440;28;20043;-83
2022/01/16 09:12:11;;;;;;;12.00;6.85;;;4.50;99.90;;;;;;5014340;28;20484;-84
2022/01/16 09:14:37;;;;;;;7.28;4.18;;;4.40;99.90;;;;;;5014327;28;20080;-84
2022/01/16 09:17:03;;;;;;;14.13;6.50;;;4.50;99.90;;;;;;5014330;28;20561;-84
2022/01/16 09:19:29;;;;;;;13.45;4.82;;;4.50;99.90;;;;;;5014414;28;20095;-84
2022/01/16 09:21:55;;;;;;;10.35;4.72;;;4.60;99.90;;;;;;5014475;28;20087;-84
2022/01/16 09:24:21;;;;;;;18.58;8.73;;;4.60;99.90;;;;;;5016435;28;20372;-83
2022/01/16 09:26:47;;;;;;;12.57;7.72;;;4.70;99.90;;;;;;5017870;28;20084;-84
2022/01/16 09:29:13;;;;;;;10.60;5.25;;;4.70;99.90;;;;;;5018231;28;20037;-84
2022/01/16 09:31:38;;;;;;;11.80;5.55;;;4.70;99.90;;;;;;5034663;28;20414;-84
2022/01/16 09:34:05;;;;;;;23.38;8.52;;;4.80;99.90;;;;;;5018151;28;20065;-84
2022/01/16 09:36:30;;;;;;;6.57;3.50;;;4.70;99.90;;;;;;5017301;28;20030;-84
2022/01/16 09:38:56;;;;;;;11.93;5.63;;;4.80;99.90;;;;;;5018030;28;20044;-84
2022/01/16 09:41:22;;;;;;;3.30;1.80;;;4.80;99.90;;;;;;5034459;28;20045;-84
2022/01/16 09:43:47;;;;;;;10.75;4.30;;;4.70;99.90;;;;;;5017500;28;20041;-84
2022/01/16 09:46:13;;;;;;;11.63;4.72;;;4.70;99.90;;;;;;5017251;28;20045;-83
2022/01/16 09:48:39;;;;;;;0.73;0.57;;;4.80;99.90;;;;;;5017656;28;20046;-84
2022/01/16 09:51:05;;;;;;;6.88;3.25;;;4.80;99.90;;;;;;5017215;28;20041;-84
2022/01/16 09:53:31;;;;;;;7.72;4.68;;;4.80;99.90;;;;;;5017274;28;20516;-84
2022/01/16 09:55:57;;;;;;;6.80;3.28;;;4.80;99.90;;;;;;5017114;28;20076;-84
2022/01/16 09:58:23;;;;;;;9.30;4.10;;;4.80;99.90;;;;;;5016603;28;20045;-84
2022/01/16 10:00:50;;;;;;;8.90;4.32;;;4.90;99.90;;;;;;5017054;28;20414;-84
2022/01/16 10:03:32;;;;;;;9.68;5.47;;;4.90;99.90;;;;;;5017120;28;20087;-84
2022/01/16 10:06:10;;;;;;;15.90;5.15;;;4.90;99.90;;;;;;5017114;28;20049;-84
2022/01/16 10:08:37;;;;;;;11.68;6.13;;;4.90;99.90;;;;;;5016934;28;20041;-84
2022/01/16 10:11:19;;;;;;;4.28;2.08;;;4.90;99.90;;;;;;5034733;28;20040;-84
2022/01/16 10:14:08;;;;;;;6.85;3.40;;;4.90;99.90;;;;;;5018275;28;20491;-84
2022/01/16 10:16:36;;;;;;;4.70;3.00;;;4.90;99.90;;;;;;5016777;28;20182;-84
2022/01/16 10:19:17;;;;;;;2.35;1.65;;;5.10;99.90;;;;;;5017057;28;20049;-85
2022/01/16 10:21:43;;;;;;;8.30;3.90;;;5.00;99.90;;;;;;5033132;28;20080;-84
2022/01/16 10:24:28;;;;;;;5.05;2.80;;;5.00;99.90;;;;;;5016710;28;20053;-84
2022/01/16 10:27:09;;;;;;;16.25;5.63;;;5.00;99.90;;;;;;5009607;28;20391;-84
2022/01/16 10:29:39;;;;;;;15.52;7.65;;;5.00;99.90;;;;;;5016583;28;20045;-84
2022/01/16 10:32:16;;;;;;;12.68;5.53;;;5.10;99.90;;;;;;5033327;28;20041;-84
2022/01/16 10:34:43;;;;;;;3.00;2.38;;;5.10;99.90;;;;;;5016265;28;20446;-84
2022/01/16 10:37:22;;;;;;;10.15;3.83;;;5.10;99.90;;;;;;5016265;28;20123;-84
2022/01/16 10:39:57;;;;;;;8.02;4.18;;;5.20;99.90;;;;;;5032881;28;20573;-85
2022/01/16 10:42:24;;;;;;;10.63;3.10;;;5.20;99.90;;;;;;5032661;28;20041;-84
2022/01/16 10:48:32;;;;;;;3.28;2.05;;;5.20;99.90;;;;;;5033992;28;20044;-84
2022/01/16 10:50:58;;;;;;;7.05;3.05;;;5.30;99.90;;;;;;5016276;28;20029;-84
2022/01/16 10:53:26;;;;;;;4.97;3.05;;;5.30;99.90;;;;;;5015996;28;20041;-84
2022/01/16 10:55:58;;;;;;;6.95;3.28;;;5.30;99.90;;;;;;5032756;28;20037;-84
2022/01/16 10:58:29;;;;;;;6.50;2.40;;;5.40;99.90;;;;;;5015838;28;20077;-84
2022/01/16 11:01:03;;;;;;;3.20;1.83;;;5.40;99.90;;;;;;5016128;28;20413;-84
2022/01/16 11:03:50;;;;;;;14.25;3.40;;;5.40;99.90;;;;;;5016083;28;20045;-84
2022/01/16 11:06:17;;;;;;;5.45;2.15;;;5.40;99.90;;;;;;5031645;28;20045;-85
2022/01/16 11:08:56;;;;;;;6.32;3.63;;;5.40;99.90;;;;;;5032221;28;20055;-86
2022/01/16 11:11:24;;;;;;;1.48;1.05;;;5.50;99.90;;;;;;5032122;28;20040;-85
2022/01/16 11:13:50;;;;;;;2.33;1.00;;;5.50;99.90;;;;;;5032135;28;20433;-87
2022/01/16 11:16:17;;;;;;;3.45;2.28;;;5.50;99.90;;;;;;5048869;28;20041;-87
2022/01/16 11:18:48;;;;;;;21.77;1.77;;;5.80;99.90;;;;;;5032818;28;20047;-87
2022/01/16 11:21:19;;;;;;;2.05;1.23;;;5.90;99.90;;;;;;5032605;28;20586;-87
2022/01/16 11:26:26;;;;;;;7.43;3.25;;;5.60;99.90;;;;;;5048818;28;20041;-87
2022/01/16 11:28:56;;;;;;;3.28;2.65;;;5.60;99.90;;;;;;5032739;28;20507;-87
2022/01/16 11:31:23;;;;;;;1.27;0.95;;;5.60;99.90;;;;;;5032407;28;20045;-87
2022/01/16 11:33:49;;;;;;;11.43;2.28;;;5.60;99.90;;;;;;5032001;28;20033;-87
2022/01/16 11:36:28;;;;;;;2.05;1.83;;;5.70;99.90;;;;;;5015493;28;20085;-86
2022/01/16 11:38:59;;;;;;;0.70;0.70;;;5.70;99.90;;;;;;5015863;28;20085;-87
2022/01/16 11:41:46;;;;;;;3.58;2.35;;;5.70;99.90;;;;;;5015766;28;20049;-87
2022/01/16 11:44:24;;;;;;;4.32;2.55;;;5.80;99.90;;;;;;5015740;28;20041;-86
2022/01/16 11:46:52;;;;;;;4.82;0.93;;;5.90;99.90;;;;;;5014694;28;20099;-86
2022/01/16 11:49:31;;;;;;;2.38;1.65;;;5.80;99.90;;;;;;5015466;28;20489;-87
2022/01/16 11:52:02;;;;;;;5.82;2.20;;;6.20;99.90;;;;;;5015616;28;20034;-86
2022/01/16 11:54:34;;;;;;;2.90;1.63;;;5.80;99.90;;;;;;5015266;28;20789;-87
2022/01/16 11:57:18;;;;;;;1.40;0.93;;;5.80;99.90;;;;;;5014963;28;20113;-87
2022/01/16 11:59:45;;;;;;;0.80;0.80;;;5.80;99.90;;;;;;5016049;28;20037;-87
2022/01/16 12:02:15;;;;;;;4.22;2.38;;;5.90;99.90;;;;;;5015358;28;20043;-87
2022/01/16 12:04:43;;;;;;;3.55;2.15;;;5.90;99.90;;;;;;5015856;28;20045;-93
2022/01/16 12:07:12;;;;;;;0.60;0.60;;;6.00;99.90;;;;;;5015143;28;20041;-87
2022/01/16 12:09:59;;;;;;;7.03;2.47;;;6.00;99.90;;;;;;5015400;28;20045;-87
2022/01/16 12:12:27;;;;;;;2.45;1.23;;;6.10;99.90;;;;;;5015687;28;20044;-88
2022/01/16 12:15:34;;;;;;;1.85;1.02;;;6.10;99.90;;;;;;5015481;28;20558;-88
2022/01/16 12:18:01;;;;;;;4.68;2.00;;;6.20;99.90;;;;;;5032198;28;20045;-88
2022/01/16 12:20:28;;;;;;;2.75;1.08;;;6.30;99.90;;;;;;5031880;28;20037;-88
2022/01/16 12:23:04;;;;;;;5.82;2.63;;;6.40;99.90;;;;;;5031426;28;20048;-88
2022/01/16 12:25:36;;;;;;;8.15;2.90;;;6.40;99.90;;;;;;5015510;28;20123;-88
2022/01/16 12:28:04;;;;;;;1.20;0.98;;;6.40;99.90;;;;;;5014994;28;20075;-88
2022/01/16 12:30:51;;;;;;;3.75;2.05;;;6.40;99.90;;;;;;5015216;28;20450;-88
2022/01/16 12:33:16;;;;;;;1.63;0.98;;;6.40;99.90;;;;;;5014993;28;20049;-88
2022/01/16 12:36:08;;;;;;;10.10;2.08;;;6.50;99.90;;;;;;5014944;28;20388;-88
2022/01/16 12:38:37;;;;;;;5.30;2.35;;;6.50;99.90;;;;;;5014957;28;20086;-88
2022/01/16 12:41:16;;;;;;;20.05;3.70;;;6.70;99.90;;;;;;5015059;28;20120;-88
2022/01/16 12:43:49;;;;;;;5.03;3.15;;;6.50;99.90;;;;;;5031270;28;20413;-88
2022/01/16 12:46:19;;;;;;;2.30;1.10;;;6.50;99.90;;;;;;5014459;28;20046;-88
2022/01/16 12:48:51;;;;;;;3.60;2.00;;;6.50;99.90;;;;;;5015248;28;20506;-88
2022/01/16 12:51:19;;;;;;;19.25;3.15;;;6.50;99.90;;;;;;5031636;28;20207;-88
2022/01/16 12:53:47;;;;;;;4.20;2.22;;;6.80;99.90;;;;;;5031082;28;20084;-88
2022/01/16 12:56:39;;;;;;;3.15;1.98;;;6.60;99.90;;;;;;5014802;28;20503;-88
2022/01/16 12:59:13;;;;;;;2.10;1.20;;;6.50;99.90;;;;;;5016857;28;20048;-88
2022/01/16 13:01:54;;;;;;;3.95;2.08;;;6.60;99.90;;;;;;5018924;28;20508;-88
2022/01/16 13:04:26;;;;;;;18.20;1.67;;;6.60;99.90;;;;;;5019015;28;20060;-88
2022/01/16 13:06:52;;;;;;;11.20;5.68;;;6.50;99.90;;;;;;5018496;28;20099;-87
2022/01/16 13:09:18;;;;;;;10.40;2.15;;;6.60;99.90;;;;;;5035136;28;20119;-87
2022/01/16 13:11:46;;;;;;;5.35;2.45;;;6.60;99.90;;;;;;5035460;28;20041;-88
2022/01/16 13:14:14;;;;;;;4.78;2.45;;;6.60;99.90;;;;;;5018365;28;20124;-88
2022/01/16 13:16:47;;;;;;;6.20;2.40;;;6.70;99.90;;;;;;5018538;28;20041;-88
2022/01/16 13:19:21;;;;;;;3.42;2.10;;;6.60;99.90;;;;;;5018673;28;20127;-88
2022/01/16 13:22:11;;;;;;;7.10;3.20;;;6.60;99.90;;;;;;5018565;28;20178;-88
2022/01/16 13:25:07;;;;;;;2.95;1.90;;;6.50;99.90;;;;;;5018904;28;20120;-87
2022/01/16 13:27:34;;;;;;;;;;;6.60;99.90;;;;;;5017972;28;20121;-88
2022/01/16 13:30:25;;;;;;;6.65;2.05;;;6.60;99.90;;;;;;5018322;28;19917;-88
2022/01/16 13:32:51;;;;;;;1.10;0.80;;;6.50;99.90;;;;;;5034872;28;20037;-88
2022/01/16 13:35:26;;;;;;;5.97;3.38;;;6.50;99.90;;;;;;5034972;28;20048;-88
2022/01/16 13:38:01;;;;;;;6.80;2.97;;;6.50;99.90;;;;;;5034508;28;20041;-89
2022/01/16 13:40:27;;;;;;;7.90;2.97;;;6.50;99.90;;;;;;5018466;28;20049;-89
2022/01/16 13:45:36;;;;;;;6.88;2.65;;;7.00;99.90;;;;;;5034943;28;20042;-87